Terminal Aerodrome Forecast
Issued by NWS

Home | Current Version | Previous Version | Text Only | Print | Product List | Glossary On
Versions: 1 2 3 4 5 6 7 8 9 10 11 12 13
000
FTUS46 KLOX 180500
TAFPRB
TAF
KPRB 180532Z 1806/1906 VRB03KT P6SM SKC
     FM181200 VRB03KT P6SM OVC008
     FM181500 VRB03KT P6SM OVC012
     FM181700 23004KT P6SM BKN020
     FM181900 22007KT P6SM SCT020
     FM182200 20015KT P6SM SKC
     FM190400 20008KT P6SM SKC=

USA.gov is the U.S. government's official web portal to all federal, state and local government web resources and services.